Time;durP1;ratioP1;P1;durP2;ratioP2;P2;SDS_P1;SDS_P2;PMS_P1;PMS_P2;Temp;Humidity;BMP_temperature;BMP_pressure;BME280_temperature;BME280_humidity;BME280_pressure;Samples;Min_cycle;Max_cycle;Signal;HPM_P1;HPM_P2
2021/11/06 00:00:52;;;;;;;35.08;11.55;;;;;;;11.51;100.00;97361.72;4965423;28;20495;-66
2021/11/06 00:03:19;;;;;;;23.58;11.07;;;;;;;12.18;100.00;97468.44;4964547;28;20055;-67
2021/11/06 00:05:45;;;;;;;20.55;9.27;;;;;;;11.48;100.00;97378.31;4965504;28;20050;-67
2021/11/06 00:08:13;;;;;;;18.08;8.73;;;;;;;12.07;100.00;97461.91;4964265;28;20047;-67
2021/11/06 00:10:40;;;;;;;22.77;8.52;;;;;;;12.05;100.00;97462.28;4963695;28;20061;-67
2021/11/06 00:13:07;;;;;;;15.15;8.52;;;;;;;12.02;100.00;97459.44;4963791;28;20065;-66
2021/11/06 00:15:34;;;;;;;14.40;7.90;;;;;;;12.05;100.00;97458.69;4965267;28;20054;-66
2021/11/06 00:18:02;;;;;;;18.02;7.25;;;;;;;12.05;100.00;97453.94;4965159;28;20142;-66
2021/11/06 00:20:28;;;;;;;17.67;6.53;;;;;;;11.99;100.00;97460.19;4963874;28;20062;-67
2021/11/06 00:22:55;;;;;;;18.30;7.82;;;;;;;11.13;100.00;97366.56;4965119;28;20514;-66
2021/11/06 00:25:24;;;;;;;16.08;7.43;;;;;;;12.04;100.00;97457.09;4963855;28;20054;-66
2021/11/06 00:27:51;;;;;;;16.50;7.72;;;;;;;12.07;100.00;97465.50;4965269;28;20058;-67
2021/11/06 00:30:18;;;;;;;20.67;7.97;;;;;;;11.84;100.00;97430.53;4964814;28;20058;-67
2021/11/06 00:32:45;;;;;;;17.92;6.45;;;;;;;11.97;100.00;97456.97;4964053;28;20061;-66
2021/11/06 00:35:14;;;;;;;15.43;7.97;;;;;;;11.91;100.00;97448.16;4964973;28;20051;-67
2021/11/06 00:37:42;;;;;;;13.63;6.68;;;;;;;11.99;100.00;97454.63;4964971;28;20058;-66
2021/11/06 00:40:10;;;;;;;15.90;7.90;;;;;;;12.01;100.00;97477.28;4964915;28;20060;-68
2021/11/06 00:42:36;;;;;;;21.35;8.02;;;;;;;11.94;100.00;97468.81;4965410;28;20149;-67
2021/11/06 00:45:05;;;;;;;16.42;8.77;;;;;;;11.35;100.00;97457.31;4965233;28;20517;-68
2021/11/06 00:47:32;;;;;;;25.13;9.05;;;;;;;11.55;100.00;97478.34;4965368;28;20527;-67
2021/11/06 00:49:59;;;;;;;18.25;9.02;;;;;;;11.56;100.00;97482.69;4963737;28;20046;-68
2021/11/06 00:52:26;;;;;;;19.35;8.38;;;;;;;11.59;100.00;97484.75;4964027;28;20908;-66
2021/11/06 00:54:53;;;;;;;18.33;8.63;;;;;;;11.45;100.00;97484.47;4963637;28;20058;-66
2021/11/06 00:57:19;;;;;;;15.95;9.23;;;;;;;11.39;100.00;97481.19;4962954;28;20059;-66
2021/11/06 00:59:46;;;;;;;19.10;9.43;;;;;;;11.39;100.00;97497.00;4965005;28;20456;-66
2021/11/06 01:02:13;;;;;;;20.75;9.30;;;;;;;11.38;100.00;97485.09;4963781;28;20063;-67
2021/11/06 01:04:39;;;;;;;20.23;9.70;;;;;;;11.25;100.00;97485.63;4965711;28;20063;-66
2021/11/06 01:07:06;;;;;;;22.23;9.60;;;;;;;11.38;100.00;97489.88;4963316;28;20053;-66
2021/11/06 01:09:33;;;;;;;20.52;8.27;;;;;;;11.37;100.00;97482.69;4965277;28;20051;-66
2021/11/06 01:12:00;;;;;;;21.95;10.60;;;;;;;11.32;100.00;97502.41;4964596;28;20073;-66
2021/11/06 01:14:27;;;;;;;24.70;10.30;;;;;;;11.25;100.00;97480.88;4965144;28;20066;-66
2021/11/06 01:16:53;;;;;;;26.52;10.20;;;;;;;11.02;100.00;97445.94;4964958;28;20063;-66
2021/11/06 01:19:20;;;;;;;23.73;9.85;;;;;;;11.26;100.00;97476.13;4963579;28;20506;-66
2021/11/06 01:21:47;;;;;;;24.40;8.88;;;;;;;9.01;100.00;97120.25;4963446;28;20057;-66
2021/11/06 01:24:14;;;;;;;20.98;8.60;;;;;;;10.89;100.00;97447.22;4964933;28;20057;-66
2021/11/06 01:26:41;;;;;;;22.10;8.52;;;;;;;11.44;100.00;97493.97;4964227;28;20134;-66
2021/11/06 01:29:08;;;;;;;14.43;5.43;;;;;;;11.40;100.00;97498.59;4964898;28;20532;-67
2021/11/06 01:31:35;;;;;;;16.38;6.18;;;;;;;11.46;100.00;97491.63;4964304;28;20043;-66
2021/11/06 01:34:01;;;;;;;21.30;5.50;;;;;;;11.45;100.00;97495.56;4964722;28;20070;-66
2021/11/06 01:36:28;;;;;;;15.70;5.47;;;;;;;10.93;100.00;97400.97;4962997;28;20055;-66
2021/11/06 01:38:55;;;;;;;17.10;6.95;;;;;;;11.44;100.00;97493.97;4964957;28;20054;-66
2021/11/06 01:41:22;;;;;;;20.98;7.97;;;;;;;10.61;100.00;97384.47;4964530;28;20054;-67
2021/11/06 01:43:48;;;;;;;23.35;8.00;;;;;;;11.25;100.00;97491.16;4962576;28;20525;-68
2021/11/06 01:46:15;;;;;;;30.35;8.95;;;;;;;11.21;100.00;97484.72;4964475;28;20513;-67
2021/11/06 01:48:43;;;;;;;29.88;10.98;;;;;;;11.20;100.00;97488.69;4964704;28;20051;-66
2021/11/06 01:51:10;;;;;;;22.42;7.28;;;;;;;10.36;100.00;97388.63;4962822;28;20054;-67
2021/11/06 01:53:37;;;;;;;31.08;7.30;;;;;;;11.12;100.00;97492.47;4962596;28;20065;-66
2021/11/06 01:56:04;;;;;;;19.23;6.75;;;;;;;11.18;100.00;97491.00;4967466;28;20062;-66
2021/11/06 01:58:31;;;;;;;17.73;6.30;;;;;;;11.25;100.00;97480.06;4968078;28;20066;-66
2021/11/06 02:00:58;;;;;;;17.92;7.18;;;;;;;11.35;100.00;97485.06;4967974;28;20055;-67
2021/11/06 02:03:25;;;;;;;11.50;5.40;;;;;;;11.01;100.00;97431.25;4968237;28;20127;-67
2021/11/06 02:05:52;;;;;;;15.23;4.75;;;;;;;11.21;100.00;97451.44;4968300;28;20057;-66
2021/11/06 02:08:19;;;;;;;18.92;5.07;;;;;;;11.55;100.00;97494.97;4967603;28;20061;-67
2021/11/06 02:10:47;;;;;;;14.13;5.78;;;;;;;10.98;100.00;97409.00;4967546;28;20078;-66
2021/11/06 02:13:14;;;;;;;14.95;4.70;;;;;;;11.24;100.00;97486.81;4966197;28;20089;-67
2021/11/06 02:15:40;;;;;;;16.23;6.05;;;;;;;11.51;100.00;97505.19;4967625;28;20047;-66
2021/11/06 02:18:07;;;;;;;10.80;5.03;;;;;;;11.41;100.00;97511.31;4967229;28;20136;-67
2021/11/06 02:20:34;;;;;;;19.83;6.38;;;;;;;11.10;100.00;97472.59;4967694;28;20050;-67
2021/11/06 02:23:01;;;;;;;12.75;5.78;;;;;;;11.32;100.00;97507.94;4966980;28;20070;-67
2021/11/06 02:25:28;;;;;;;13.63;6.13;;;;;;;11.24;100.00;97514.53;4966441;28;20082;-66
2021/11/06 02:28:15;;;;;;;16.55;6.43;;;;;;;10.32;100.00;97407.13;4966529;28;20053;-66
2021/11/06 02:30:42;;;;;;;12.27;5.70;;;;;;;10.80;100.00;97457.69;4967573;28;20051;-66
2021/11/06 02:33:09;;;;;;;12.43;5.72;;;;;;;10.73;100.00;97453.59;4965520;28;20513;-67
2021/11/06 02:35:36;;;;;;;10.48;4.68;;;;;;;11.14;100.00;97517.88;4965748;28;20143;-66
2021/11/06 02:38:02;;;;;;;13.43;5.30;;;;;;;11.12;100.00;97512.69;4967267;28;20050;-66
2021/11/06 02:40:29;;;;;;;16.15;6.88;;;;;;;10.90;100.00;97479.28;4967847;28;20505;-66
2021/11/06 02:42:56;;;;;;;13.85;5.13;;;;;;;10.85;100.00;97493.44;4966580;28;20061;-66
2021/11/06 02:45:23;;;;;;;12.00;5.53;;;;;;;11.12;100.00;97575.63;4966788;28;20057;-66
2021/11/06 02:47:50;;;;;;;10.63;5.75;;;;;;;11.13;100.00;97519.03;4967452;28;20061;-66
2021/11/06 02:50:18;;;;;;;13.35;6.80;;;;;;;10.98;100.00;97503.25;4966081;28;20047;-67
2021/11/06 02:52:45;;;;;;;17.08;7.22;;;;;;;11.09;100.00;97521.72;4966605;28;20059;-66
2021/11/06 02:55:11;;;;;;;24.20;8.18;;;;;;;11.14;100.00;97517.88;4967304;28;20062;-66
2021/11/06 02:57:38;;;;;;;20.80;7.97;;;;;;;11.14;100.00;97512.31;4966920;28;20434;-66
2021/11/06 03:00:07;;;;;;;16.70;8.27;;;;;;;8.86;100.00;97154.22;4966682;28;20098;-66
2021/11/06 03:02:34;;;;;;;18.33;8.85;;;;;;;11.08;100.00;97513.78;4966596;28;20449;-67
2021/11/06 03:05:06;;;;;;;21.80;9.05;;;;;;;10.91;100.00;97528.03;4965528;28;20061;-66
2021/11/06 03:07:34;;;;;;;25.58;9.38;;;;;;;10.78;100.00;97523.75;4965852;28;20055;-67
2021/11/06 03:10:03;;;;;;;23.83;10.85;;;;;;;10.85;100.00;97523.91;4967031;28;20650;-67
2021/11/06 03:12:31;;;;;;;29.05;10.23;;;;;;;10.66;100.00;97497.75;4966403;28;20398;-66
2021/11/06 03:14:58;;;;;;;20.00;8.88;;;;;;;10.01;100.00;97392.47;4966677;28;20061;-67
2021/11/06 03:17:25;;;;;;;25.98;9.90;;;;;;;10.90;100.00;97523.63;4964603;28;20093;-67
2021/11/06 03:19:55;;;;;;;27.13;10.45;;;;;;;10.33;100.00;97428.13;4965078;28;20266;-66
2021/11/06 03:22:22;;;;;;;14.70;6.78;;;;;;;10.93;100.00;97534.00;4966062;28;20051;-66
2021/11/06 03:24:49;;;;;;;13.38;5.50;;;;;;;10.96;100.00;97527.72;4966776;28;20434;-66
2021/11/06 03:27:16;;;;;;;16.08;5.88;;;;;;;10.95;100.00;97535.28;4964624;28;20544;-66
2021/11/06 03:29:43;;;;;;;20.05;4.90;;;;;;;10.65;100.00;97476.75;4966253;28;20411;-67
2021/11/06 03:32:10;;;;;;;24.55;6.45;;;;;;;10.41;100.00;97429.91;4966083;28;20154;-66
2021/11/06 03:34:37;;;;;;;15.70;6.25;;;;;;;11.04;100.00;97546.13;4964426;28;20532;-67
2021/11/06 03:37:04;;;;;;;15.63;5.75;;;;;;;10.17;100.00;97468.84;4964449;28;20058;-66
2021/11/06 03:39:32;;;;;;;18.98;7.82;;;;;;;10.83;100.00;97551.19;4965809;28;20060;-66
2021/11/06 03:42:00;;;;;;;12.32;6.45;;;;;;;10.75;100.00;97554.97;4966036;28;20078;-66
2021/11/06 03:44:27;;;;;;;10.38;5.32;;;;;;;10.28;100.00;97505.91;4966241;28;20054;-66
2021/11/06 03:46:54;;;;;;;19.05;10.30;;;;;;;10.31;100.00;97496.09;4964238;28;20051;-66
2021/11/06 03:49:20;;;;;;;22.42;9.52;;;;;;;10.60;100.00;97565.69;4964479;28;20081;-65
2021/11/06 03:51:47;;;;;;;21.35;8.57;;;;;;;10.62;100.00;97557.81;4963968;28;20063;-66
2021/11/06 03:54:14;;;;;;;15.50;6.47;;;;;;;10.60;100.00;97565.69;4964045;28;20062;-68
2021/11/06 03:56:41;;;;;;;14.80;5.82;;;;;;;10.46;100.00;97559.78;4964494;28;20125;-66
2021/11/06 03:59:08;;;;;;;17.15;6.53;;;;;;;10.57;100.00;97569.16;4965933;28;20053;-67
2021/11/06 04:01:35;;;;;;;13.35;7.57;;;;;;;10.62;100.00;97568.88;4965313;28;20054;-65
2021/11/06 04:04:02;;;;;;;27.25;10.85;;;;;;;10.43;100.00;97599.25;4965808;28;20061;-66
2021/11/06 04:06:30;;;;;;;21.58;9.65;;;;;;;10.61;100.00;97561.75;4965603;28;20057;-66
2021/11/06 04:08:57;;;;;;;31.90;10.88;;;;;;;10.64;100.00;97555.50;4965222;28;20104;-66
2021/11/06 04:11:24;;;;;;;22.85;9.55;;;;;;;10.58;100.00;97553.34;4964735;28;20055;-65
2021/11/06 04:13:55;;;;;;;30.15;14.43;;;;;;;10.63;100.00;97553.91;4964184;28;20946;-65
2021/11/06 04:16:22;;;;;;;36.17;15.70;;;;;;;10.66;100.00;97552.38;4965614;28;20058;-65
2021/11/06 04:18:48;;;;;;;36.53;13.55;;;;;;;10.60;100.00;97554.63;4965320;28;20450;-66
2021/11/06 04:21:15;;;;;;;26.58;9.88;;;;;;;10.42;100.00;97547.81;4965471;28;20054;-66
2021/11/06 04:23:42;;;;;;;23.58;8.48;;;;;;;10.08;100.00;97501.44;4964063;28;20051;-66
2021/11/06 04:26:09;;;;;;;20.50;6.28;;;;;;;8.32;100.00;97191.00;4963711;28;20059;-65
2021/11/06 04:28:36;;;;;;;17.75;4.85;;;;;;;10.56;100.00;97553.72;4963843;28;20058;-66
2021/11/06 04:31:03;;;;;;;20.42;6.22;;;;;;;10.67;100.00;97563.09;4963347;28;20054;-66
2021/11/06 04:33:30;;;;;;;20.73;6.78;;;;;;;10.66;100.00;97569.81;4964864;28;20065;-66
2021/11/06 04:35:56;;;;;;;19.45;6.57;;;;;;;10.66;100.00;97569.81;4964790;28;20054;-65
2021/11/06 04:38:23;;;;;;;25.50;7.70;;;;;;;10.72;100.00;97581.41;4965232;28;20062;-66
2021/11/06 04:40:50;;;;;;;22.35;6.20;;;;;;;10.67;100.00;97581.66;4965294;28;20493;-65
2021/11/06 04:43:16;;;;;;;15.43;6.57;;;;;;;10.60;100.00;97581.50;4963616;28;20062;-66
2021/11/06 04:45:43;;;;;;;12.80;5.68;;;;;;;10.43;100.00;97568.78;4964671;28;20097;-67
2021/11/06 04:48:10;;;;;;;23.30;6.57;;;;;;;10.46;100.00;97587.47;4964915;28;20469;-65
2021/11/06 04:50:37;;;;;;;16.85;5.95;;;;;;;10.36;100.00;97576.13;4964696;28;20047;-64
2021/11/06 04:53:04;;;;;;;16.48;6.47;;;;;;;10.31;100.00;97596.56;4964362;28;20065;-65
2021/11/06 04:55:31;;;;;;;17.00;6.70;;;;;;;10.33;100.00;97583.19;4964666;28;20131;-64
2021/11/06 04:57:57;;;;;;;19.80;7.22;;;;;;;9.88;100.00;97527.34;4964773;28;20107;-65
2021/11/06 05:00:24;;;;;;;13.23;6.63;;;;;;;10.23;100.00;97583.69;4965158;28;20618;-65
2021/11/06 05:02:51;;;;;;;49.85;10.52;;;;;;;10.21;100.00;97579.69;4964681;28;20576;-65
2021/11/06 05:05:18;;;;;;;54.13;10.75;;;;;;;10.14;100.00;97580.31;4964924;28;20076;-66
2021/11/06 05:07:45;;;;;;;14.18;6.00;;;;;;;7.73;100.00;97191.63;4963515;28;20077;-67
2021/11/06 05:10:11;;;;;;;20.52;6.60;;;;;;;10.24;100.00;97590.84;4964429;28;20138;-65
2021/11/06 05:12:39;;;;;;;15.32;6.88;;;;;;;10.29;100.00;97590.59;4964908;28;20046;-67
2021/11/06 05:15:07;;;;;;;22.83;10.27;;;;;;;10.24;100.00;97590.84;4962987;28;20059;-67
2021/11/06 05:17:34;;;;;;;18.50;9.48;;;;;;;10.20;100.00;97584.41;4964934;28;20055;-65
2021/11/06 05:20:03;;;;;;;24.80;8.98;;;;;;;10.35;100.00;97603.00;4965514;28;20070;-66
2021/11/06 05:22:30;;;;;;;22.58;9.73;;;;;;;10.43;100.00;97621.41;4964735;28;20047;-66
2021/11/06 05:24:57;;;;;;;25.55;10.98;;;;;;;10.42;100.00;97614.28;4965126;28;20051;-67
2021/11/06 05:27:24;;;;;;;24.73;10.52;;;;;;;10.48;100.00;97612.84;4964691;28;20513;-66
2021/11/06 05:29:53;;;;;;;34.08;11.95;;;;;;;10.53;100.00;97614.56;4966568;28;20090;-68
2021/11/06 05:32:20;;;;;;;30.30;11.70;;;;;;;9.68;100.00;97466.72;4968076;28;20059;-67
2021/11/06 05:34:47;;;;;;;31.27;14.45;;;;;;;10.65;100.00;97612.50;4968901;28;20458;-67
2021/11/06 05:37:14;;;;;;;39.95;17.10;;;;;;;10.32;100.00;97556.63;4966763;28;20518;-67
2021/11/06 05:39:41;;;;;;;44.83;18.33;;;;;;;10.83;100.00;97623.25;4968994;28;20544;-67
2021/11/06 05:42:07;;;;;;;60.88;22.17;;;;;;;10.72;100.00;97616.63;4967855;28;20601;-67
2021/11/06 05:44:35;;;;;;;45.03;18.52;;;;;;;11.04;100.00;97635.66;4968230;28;20050;-67
2021/11/06 05:47:02;;;;;;;38.75;16.60;;;;;;;10.54;100.00;97572.63;4967260;28;20514;-67
2021/11/06 05:49:29;;;;;;;51.05;22.50;;;;;;;10.49;100.00;97536.94;4967220;28;20504;-68
2021/11/06 05:51:56;;;;;;;41.65;20.02;;;;;;;10.80;100.00;97591.50;4967750;28;20593;-67
2021/11/06 05:54:23;;;;;;;40.42;19.27;;;;;;;11.27;100.00;97649.69;4968158;28;20050;-68
2021/11/06 05:56:50;;;;;;;39.60;17.35;;;;;;;11.28;100.00;97657.66;4967552;28;20051;-67
2021/11/06 05:59:17;;;;;;;38.72;17.10;;;;;;;11.27;100.00;97616.41;4961041;28;20055;-67
2021/11/06 06:01:43;;;;;;;50.28;18.73;;;;;;;11.74;100.00;97658.75;4946789;29;20063;-68
2021/11/06 06:04:10;;;;;;;49.97;18.50;;;;;;;11.93;100.00;97659.56;4948544;28;20454;-67
2021/11/06 06:06:37;;;;;;;42.53;16.67;;;;;;;11.73;98.26;97618.25;4948013;28;20048;-66
2021/11/06 06:09:04;;;;;;;43.00;15.30;;;;;;;11.45;97.59;97545.47;4948834;28;20051;-67
2021/11/06 06:11:31;;;;;;;38.88;16.88;;;;;;;11.63;100.00;97635.50;4946740;29;20066;-66
2021/11/06 06:13:57;;;;;;;34.75;16.60;;;;;;;11.57;100.00;97575.88;4948141;28;20063;-67
2021/11/06 06:16:25;;;;;;;38.85;15.15;;;;;;;12.02;98.57;97637.13;4946670;29;20055;-66
2021/11/06 06:18:52;;;;;;;30.77;12.93;;;;;;;11.66;100.00;97609.81;4948349;28;20059;-66
2021/11/06 06:21:19;;;;;;;26.80;11.23;;;;;;;12.11;100.00;97684.94;4947714;28;20059;-67
2021/11/06 06:23:46;;;;;;;23.30;9.05;;;;;;;11.84;100.00;97691.47;4948164;28;20055;-67
2021/11/06 06:26:13;;;;;;;20.80;8.13;;;;;;;12.07;100.00;97672.94;4947759;29;20507;-68
2021/11/06 06:28:40;;;;;;;20.58;7.65;;;;;;;12.35;99.30;97679.09;4965509;28;20066;-68
2021/11/06 06:31:07;;;;;;;21.80;7.93;;;;;;;12.32;98.81;97652.03;4967094;28;20066;-67
2021/11/06 06:33:34;;;;;;;23.75;10.57;;;;;;;12.83;98.73;97689.56;4913934;28;20054;-67
2021/11/06 06:36:01;;;;;;;27.15;12.02;;;;;;;13.12;96.68;97694.47;4966725;28;20065;-66
2021/11/06 06:38:28;;;;;;;21.90;11.65;;;;;;;13.16;94.27;97664.75;4787803;28;5001082;-67
2021/11/06 06:40:55;;;;;;;30.75;11.65;;;;;;;13.11;90.23;97667.03;4966707;28;20065;-67
2021/11/06 06:43:21;;;;;;;33.60;13.90;;;;;;;13.70;88.72;97709.75;4965446;28;20062;-67
2021/11/06 06:45:48;;;;;;;37.92;18.23;;;;;;;13.76;88.12;97720.56;4965473;28;20063;-69
2021/11/06 06:48:15;;;;;;;44.80;20.45;;;;;;;13.95;87.70;97700.97;4967022;28;20333;-66
2021/11/06 06:50:46;;;;;;;55.40;22.10;;;;;;;14.02;87.91;97701.09;4967213;28;20130;-68
2021/11/06 06:53:13;;;;;;;52.90;22.92;;;;;;;14.05;88.08;97711.47;4965468;28;20219;-65
2021/11/06 06:55:40;;;;;;;54.90;24.50;;;;;;;14.24;88.77;97723.31;4965578;28;20080;-66
2021/11/06 06:58:07;;;;;;;48.45;22.25;;;;;;;14.10;87.09;97672.16;4965382;28;20058;-67
2021/11/06 07:00:35;;;;;;;36.58;18.92;;;;;;;14.68;85.71;97729.06;4965798;28;20057;-68
2021/11/06 07:03:02;;;;;;;46.35;21.35;;;;;;;14.91;84.01;97732.50;4963204;28;20512;-68
2021/11/06 07:05:30;;;;;;;46.83;21.48;;;;;;;13.99;84.30;97579.28;4965663;28;20063;-67
2021/11/06 07:07:58;;;;;;;49.05;24.38;;;;;;;14.93;83.01;97696.66;4965975;28;20050;-67
2021/11/06 07:10:26;;;;;;;47.08;22.92;;;;;;;15.46;81.57;97731.50;4966426;28;20054;-66
2021/11/06 07:12:53;;;;;;;48.13;23.65;;;;;;;15.65;80.31;97734.06;4965718;28;20059;-66
2021/11/06 07:15:20;;;;;;;44.10;21.23;;;;;;;15.95;80.22;97743.06;4966328;28;20061;-67
2021/11/06 07:17:46;;;;;;;47.85;20.50;;;;;;;15.45;79.05;97589.47;4964557;28;20055;-66
2021/11/06 07:20:15;;;;;;;43.58;21.85;;;;;;;16.60;77.79;97724.31;4961616;28;20059;-67
2021/11/06 07:22:42;;;;;;;37.00;19.02;;;;;;;16.07;75.30;97607.81;4958491;28;20043;-66
2021/11/06 07:25:09;;;;;;;30.17;15.98;;;;;;;17.08;75.58;97710.06;4965209;28;20502;-70
2021/11/06 07:27:36;;;;;;;16.92;9.57;;;;;;;17.08;75.36;97698.88;4958364;28;20545;-74
2021/11/06 07:30:05;;;;;;;28.90;9.55;;;;;;;17.21;75.70;97730.91;4949753;28;20051;-70
2021/11/06 07:32:31;;;;;;;35.90;16.88;;;;;;;17.07;75.72;97680.50;4946083;28;20134;-67
2021/11/06 07:34:58;;;;;;;30.20;11.88;;;;;;;17.23;74.25;97690.09;4946555;28;20053;-68
2021/11/06 07:37:25;;;;;;;20.00;8.95;;;;;;;17.29;74.67;97743.72;4960517;28;20560;-69
2021/11/06 07:39:52;;;;;;;18.27;8.13;;;;;;;16.08;74.64;97573.88;4961008;28;20066;-66
2021/11/06 07:42:18;;;;;;;22.63;9.48;;;;;;;17.52;74.02;97738.56;4956878;28;20087;-69
2021/11/06 07:44:45;;;;;;;31.88;8.43;;;;;;;16.93;72.89;97613.28;4947023;28;20053;-69
2021/11/06 07:47:12;;;;;;;22.35;6.13;;;;;;;16.85;71.47;97583.69;4959270;28;20062;-68
2021/11/06 07:49:39;;;;;;;17.83;5.63;;;;;;;17.90;70.94;97746.19;4952983;28;20055;-64
2021/11/06 07:52:06;;;;;;;24.30;12.70;;;;;;;17.10;71.27;97590.09;4951970;28;20092;-71
2021/11/06 07:54:32;;;;;;;26.25;13.38;;;;;;;17.40;70.10;97604.50;4946329;28;20059;-71
2021/11/06 07:56:59;;;;;;;15.15;8.88;;;;;;;18.28;69.42;97699.66;4947006;28;20588;-72
2021/11/06 07:59:26;;;;;;;21.00;7.40;;;;;;;18.30;67.60;97669.22;4949112;28;20505;-72
2021/11/06 08:01:54;;;;;;;20.83;8.48;;;;;;;18.99;67.97;97748.75;4952362;28;20053;-70
2021/11/06 08:04:20;;;;;;;20.98;8.20;;;;;;;19.20;66.05;97749.47;4946552;28;20062;-66
2021/11/06 08:06:47;;;;;;;14.60;6.75;;;;;;;17.51;63.45;97459.66;4950359;28;20042;-71
2021/11/06 08:09:15;;;;;;;19.85;6.20;;;;;;;18.72;66.43;97748.47;4956863;28;20519;-65
2021/11/06 08:11:41;;;;;;;20.98;6.93;;;;;;;18.93;65.40;97756.00;4957450;28;20083;-65
2021/11/06 08:14:08;;;;;;;15.75;5.50;;;;;;;19.12;66.72;97761.94;4950676;28;20058;-67
2021/11/06 08:16:35;;;;;;;12.80;5.25;;;;;;;18.10;62.92;97571.53;4948117;28;20510;-70
2021/11/06 08:19:02;;;;;;;11.48;5.65;;;;;;;19.53;62.34;97754.50;4948131;28;20520;-69
2021/11/06 08:21:29;;;;;;;18.95;6.93;;;;;;;18.78;63.12;97631.75;4945756;28;20047;-69
2021/11/06 08:23:56;;;;;;;17.48;6.45;;;;;;;19.35;64.37;97753.00;4960635;28;20047;-64
2021/11/06 08:26:22;;;;;;;21.75;6.63;;;;;;;18.66;61.10;97646.25;4952254;28;20061;-67
2021/11/06 08:28:49;;;;;;;16.67;7.15;;;;;;;19.45;61.83;97708.00;4963423;28;20058;-69
2021/11/06 08:31:16;;;;;;;22.17;6.97;;;;;;;19.68;61.11;97703.81;4963069;28;20051;-70
2021/11/06 08:33:43;;;;;;;15.48;6.75;;;;;;;19.28;61.97;97641.47;4965072;28;20054;-68
2021/11/06 08:36:10;;;;;;;17.73;6.18;;;;;;;19.33;62.06;97631.81;4962909;28;20058;-72
2021/11/06 08:38:37;;;;;;;14.63;5.72;;;;;;;20.35;62.16;97782.78;4954835;28;20076;-69
2021/11/06 08:41:04;;;;;;;12.30;5.55;;;;;;;19.43;61.78;97634.53;4951800;28;20728;-70
2021/11/06 08:43:34;;;;;;;27.55;13.90;;;;;;;20.52;60.90;97753.66;4963283;28;20050;-68
2021/11/06 08:46:02;;;;;;;18.25;6.13;;;;;;;20.59;59.20;97764.84;4956782;28;20050;-65
2021/11/06 08:48:29;;;;;;;12.75;5.20;;;;;;;19.78;59.60;97669.16;4947093;28;20582;-66
2021/11/06 08:50:56;;;;;;;16.67;5.95;;;;;;;20.60;58.92;97755.16;4943398;29;20058;-65
2021/11/06 08:53:22;;;;;;;17.20;6.90;;;;;;;20.08;58.29;97629.88;4943647;28;20066;-64
2021/11/06 08:55:49;;;;;;;9.75;5.00;;;;;;;20.20;57.67;97677.22;4945522;28;20051;-67
2021/11/06 08:58:16;;;;;;;13.60;5.15;;;;;;;21.07;56.50;97756.28;4952354;28;20047;-70
2021/11/06 09:00:46;;;;;;;12.70;5.40;;;;;;;19.84;55.44;97588.78;4943139;28;20142;-67
2021/11/06 09:03:20;;;;;;;15.02;6.55;;;;;;;19.96;55.85;97628.41;4948500;28;21090;-68
2021/11/06 09:05:51;;;;;;;24.35;6.40;;;;;;;21.18;56.46;97763.38;4954679;28;20375;-63
2021/11/06 09:08:33;;;;;;;15.98;5.88;;;;;;;20.43;54.42;97621.88;4968479;28;20074;-65
2021/11/06 09:11:05;;;;;;;14.70;5.85;;;;;;;21.39;54.34;97734.06;4948628;28;20055;-70
2021/11/06 09:13:33;;;;;;;15.25;7.32;;;;;;;21.62;53.63;97760.31;4949180;29;20059;-66
2021/11/06 09:16:03;;;;;;;15.60;5.65;;;;;;;22.12;52.33;97755.50;4960660;28;20067;-66
2021/11/06 09:18:30;;;;;;;14.55;6.60;;;;;;;22.06;52.11;97762.88;4963626;28;20449;-72
2021/11/06 09:20:57;;;;;;;10.65;5.13;;;;;;;21.94;51.45;97766.28;4964760;28;20049;-66
2021/11/06 09:23:24;;;;;;;18.33;5.97;;;;;;;21.83;50.73;97737.44;4948594;28;20143;-67
2021/11/06 09:25:51;;;;;;;13.77;5.75;;;;;;;22.24;49.47;97756.94;4949301;28;20065;-73
2021/11/06 09:28:18;;;;;;;10.68;5.10;;;;;;;22.29;49.22;97737.47;4954073;28;20458;-75
2021/11/06 09:30:45;;;;;;;14.35;6.50;;;;;;;22.68;49.58;97753.72;4955685;28;20547;-74
2021/11/06 09:33:12;;;;;;;13.75;6.80;;;;;;;22.83;49.68;97748.56;4953834;28;20059;-69
2021/11/06 09:35:39;;;;;;;15.07;7.28;;;;;;;22.89;49.61;97747.63;4957946;28;20415;-70
2021/11/06 09:38:06;;;;;;;11.05;7.65;;;;;;;22.89;47.97;97724.25;4962936;28;20522;-68
2021/11/06 09:40:33;;;;;;;17.00;6.45;;;;;;;22.74;48.58;97683.38;4964411;28;20063;-73
2021/11/06 09:43:00;;;;;;;11.60;6.68;;;;;;;22.39;48.93;97628.38;4964736;28;20059;-68
2021/11/06 09:45:27;;;;;;;16.13;7.57;;;;;;;23.01;46.90;97686.84;4965784;28;20422;-68
2021/11/06 09:47:54;;;;;;;18.10;7.63;;;;;;;23.42;46.00;97740.88;4965507;28;20514;-68
2021/11/06 09:50:22;;;;;;;13.77;6.03;;;;;;;23.30;46.06;97704.81;4965594;28;20055;-68
2021/11/06 09:52:51;;;;;;;14.68;7.05;;;;;;;22.77;46.64;97606.22;4966506;28;20105;-69
2021/11/06 09:55:21;;;;;;;13.30;6.40;;;;;;;23.68;45.69;97703.06;4966587;28;20059;-72
2021/11/06 09:57:50;;;;;;;15.00;6.45;;;;;;;23.29;44.56;97607.06;4967367;28;20574;-71
2021/11/06 10:00:18;;;;;;;17.38;6.88;;;;;;;22.76;44.73;97502.94;4967049;28;20062;-70
2021/11/06 10:02:46;;;;;;;11.98;6.40;;;;;;;24.11;45.14;97697.97;4966447;28;20058;-72
2021/11/06 10:05:14;;;;;;;17.83;7.13;;;;;;;24.01;43.82;97648.13;4965576;28;20047;-71
2021/11/06 10:07:42;;;;;;;13.60;6.65;;;;;;;24.49;43.87;97730.13;4966170;28;20068;-71
2021/11/06 10:10:12;;;;;;;15.00;6.55;;;;;;;24.12;43.89;97682.59;4967001;28;20054;-68
2021/11/06 10:12:47;;;;;;;12.52;6.65;;;;;;;24.28;45.94;97713.69;4967508;28;20157;-68
2021/11/06 10:15:16;;;;;;;15.13;6.63;;;;;;;24.36;45.21;97698.13;4959095;28;20054;-67
2021/11/06 10:17:44;;;;;;;17.58;9.18;;;;;;;24.42;45.40;97718.97;4959639;28;20450;-67
2021/11/06 10:20:24;;;;;;;14.52;6.90;;;;;;;24.63;43.77;97711.94;4966904;28;20286;-66
2021/11/06 10:22:52;;;;;;;10.52;6.70;;;;;;;24.21;44.62;97626.13;4948398;28;20051;-67
2021/11/06 10:25:21;;;;;;;16.02;6.82;;;;;;;24.98;44.38;97717.44;4959889;28;20058;-70
2021/11/06 10:27:57;;;;;;;17.58;6.68;;;;;;;25.04;44.09;97709.97;4952580;28;20050;-64
2021/11/06 10:30:30;;;;;;;11.95;7.00;;;;;;;25.06;42.84;97676.28;4958048;28;20050;-68
2021/11/06 10:33:02;;;;;;;22.95;10.02;;;;;;;25.15;42.38;97710.44;4952260;28;20047;-68
2021/11/06 10:35:33;;;;;;;14.35;7.22;;;;;;;25.29;43.79;97715.69;4946992;28;20449;-64
2021/11/06 10:38:13;;;;;;;18.67;7.93;;;;;;;24.73;42.69;97621.00;4958377;28;20055;-68
2021/11/06 10:40:57;;;;;;;10.27;5.93;;;;;;;25.61;42.32;97711.13;4961716;28;20551;-66
2021/11/06 10:43:26;;;;;;;19.40;8.93;;;;;;;25.43;41.55;97710.88;4966788;28;20069;-69
2021/11/06 10:45:57;;;;;;;9.63;6.03;;;;;;;25.25;40.79;97672.47;4958359;28;20058;-68
2021/11/06 10:48:31;;;;;;;11.48;6.78;;;;;;;25.68;41.52;97708.03;4962879;28;20428;-65
2021/11/06 10:51:03;;;;;;;;;;;;;;;25.29;40.64;97704.34;4959377;28;20427;-66
2021/11/06 10:53:30;;;;;;;18.88;7.50;;;;;;;24.92;41.78;97704.28;4948373;28;20406;-65
2021/11/06 10:55:59;;;;;;;16.83;7.05;;;;;;;24.75;42.87;97703.56;4953798;28;20303;-66
2021/11/06 10:58:31;;;;;;;11.80;6.78;;;;;;;24.93;41.15;97703.81;4950994;28;20055;-61
2021/11/06 11:01:07;;;;;;;15.73;7.38;;;;;;;24.85;41.79;97668.41;4946191;28;20055;-62
2021/11/06 11:03:37;;;;;;;9.95;7.10;;;;;;;24.23;42.13;97557.72;4957658;28;20055;-68
2021/11/06 11:06:12;;;;;;;19.77;9.05;;;;;;;24.03;42.00;97504.06;4947757;28;20414;-68
2021/11/06 11:08:51;;;;;;;19.02;7.60;;;;;;;25.27;41.58;97672.81;4947312;29;20062;-68
2021/11/06 11:11:21;;;;;;;14.13;6.82;;;;;;;24.00;41.64;97561.59;4953110;28;20057;-69
2021/11/06 11:14:06;;;;;;;15.38;6.82;;;;;;;24.80;42.62;97677.47;4959396;28;20388;-69
2021/11/06 11:16:35;;;;;;;21.25;10.10;;;;;;;24.88;42.57;97667.50;4955615;28;20062;-68
2021/11/06 11:19:09;;;;;;;14.70;7.75;;;;;;;25.23;41.92;97671.31;4955043;28;20052;-69
2021/11/06 11:21:40;;;;;;;;;;;;;;;24.94;41.85;97677.03;4957524;28;20077;-69